Bow Island Climate, Alberta

Past 24 Hour Conditions

Date / Time
(MDT)
Conditions Temp
(°F)
Humidity
(%)
Dew Point
(°F)
Wind
(mph)
Pressure
(inches)
Visibility
(miles)
26 May 2015
5:00 N/A 46 83 41 SSE 6 N/A N/A
4:00 N/A 46 82 41 SSE 5 N/A N/A
3:00 N/A 47 79 41 SSE 3 N/A N/A
2:00 N/A 48 76 41 W 2 N/A N/A
1:00 N/A 52 66 41 SW 2 N/A N/A
00:00 N/A 54 55 39 S 5 N/A N/A
25 May 2015
23:00 N/A 56 50 38 SSE 8 N/A N/A
22:00 N/A 63 42 39 ESE 10 N/A N/A
21:00 N/A 65 37 38 SE 7 N/A N/A
20:00 N/A 72 27 36 ESE 10 N/A N/A
19:00 N/A 75 23 35 ESE 9 N/A N/A
18:00 N/A 75 24 35 E 17 N/A N/A
17:00 N/A 77 20 33 SE 8 N/A N/A
16:00 N/A 76 24 36 E 17 N/A N/A
15:00 N/A 77 22 36 E 9 N/A N/A
14:00 N/A 78   20 33 SE 13 gust 20 N/A N/A
13:00 N/A 76 23 35 SSE 9 N/A N/A
12:00 N/A 75 24 35 S 4 N/A N/A
11:00 N/A 73 29 38 S 6 N/A N/A
10:00 N/A 69 38 42 SSE 5 N/A N/A
9:00 N/A 63 48 43 S 3 N/A N/A
8:00 N/A 57 67 46 SSE 4 N/A N/A
7:00 N/A 49 78 43 SSE 4 N/A N/A
6:00 N/A 42   85 38 S 4 N/A N/A
5:00 N/A 43 81 38 S 3 N/A N/A
N/A Not available
↑ Highest temperature
↓ Lowest temperature

If you require additional historical weather information, please visit Climate Data Online.

What we are doing

Date modified: